Time;durP1;ratioP1;P1;durP2;ratioP2;P2;SDS_P1;SDS_P2;PMS_P1;PMS_P2;Temp;Humidity;BMP_temperature;BMP_pressure;BME280_temperature;BME280_humidity;BME280_pressure;Samples;Min_cycle;Max_cycle;Signal;HPM_P1;HPM_P2
2022/11/24 00:01:54;;;;;;;6.00;2.97;;;;;;;7.38;91.76;99098.41;5077316;28;20487;-78
2022/11/24 00:04:21;;;;;;;6.93;3.57;;;;;;;7.34;92.18;99107.63;5084664;28;20480;-78
2022/11/24 00:06:47;;;;;;;4.73;2.77;;;;;;;7.32;92.82;99102.47;5081487;28;20515;-78
2022/11/24 00:09:15;;;;;;;5.03;2.90;;;;;;;7.32;92.76;99102.47;5085578;28;20563;-76
2022/11/24 00:11:42;;;;;;;5.20;2.80;;;;;;;7.46;92.50;99102.97;5081465;28;20538;-75
2022/11/24 00:14:13;;;;;;;6.07;3.03;;;;;;;7.49;92.33;99114.13;5087002;28;20481;-78
2022/11/24 00:16:39;;;;;;;5.73;3.10;;;;;;;7.33;92.83;99113.94;5100904;28;20859;-78
2022/11/24 00:19:08;;;;;;;8.70;3.43;;;;;;;7.50;92.35;99110.50;5084037;28;20509;-78
2022/11/24 00:21:35;;;;;;;9.43;3.60;;;;;;;7.50;92.07;99105.19;5088181;28;20469;-75
2022/11/24 00:24:02;;;;;;;8.70;3.07;;;;;;;7.37;92.36;99109.19;5083365;28;20444;-74
2022/11/24 00:26:32;;;;;;;6.87;4.20;;;;;;;7.37;92.79;99115.31;5085913;28;20480;-76
2022/11/24 00:29:00;;;;;;;10.33;4.07;;;;;;;7.34;92.85;99107.63;5083276;28;20481;-77
2022/11/24 00:31:29;;;;;;;12.97;4.10;;;;;;;7.28;93.26;99111.72;5080965;28;20488;-77
2022/11/24 00:33:57;;;;;;;7.87;3.60;;;;;;;7.14;93.76;99110.41;5080774;28;20917;-78
2022/11/24 00:36:26;;;;;;;4.90;3.70;;;;;;;7.07;94.01;99111.97;5082766;28;20484;-79
2022/11/24 00:38:54;;;;;;;7.43;3.67;;;;;;;7.00;94.66;99112.72;5091643;28;20444;-75
2022/11/24 00:41:21;;;;;;;9.40;3.93;;;;;;;7.02;94.74;99119.53;5081446;28;20484;-78
2022/11/24 00:43:49;;;;;;;12.30;3.43;;;;;;;7.09;95.33;99122.47;5081400;28;20468;-76
2022/11/24 00:46:15;;;;;;;11.03;3.90;;;;;;;7.09;95.24;99128.59;5080912;28;20507;-73
2022/11/24 00:48:42;;;;;;;14.43;4.87;;;;;;;7.19;95.04;99130.38;5079917;28;20484;-79
2022/11/24 00:51:11;;;;;;;8.97;4.40;;;;;;;7.09;95.08;99122.47;5081256;28;21251;-78
2022/11/24 00:53:38;;;;;;;9.57;3.93;;;;;;;7.01;95.22;99133.78;5081068;28;20472;-75
2022/11/24 00:56:05;;;;;;;11.27;4.50;;;;;;;6.92;95.65;99135.50;5086718;28;20488;-78
2022/11/24 00:58:33;;;;;;;14.03;4.13;;;;;;;6.93;95.79;99136.38;5081083;28;20444;-75
2022/11/24 01:01:04;;;;;;;12.50;4.63;;;;;;;7.01;96.36;99140.94;5080636;28;20482;-79
2022/11/24 01:03:31;;;;;;;12.97;4.90;;;;;;;6.92;96.34;99138.16;5084703;28;20475;-80
2022/11/24 01:06:03;;;;;;;9.40;4.43;;;;;;;6.84;96.25;99134.56;5100395;28;20559;-74
2022/11/24 01:08:29;;;;;;;10.73;4.43;;;;;;;6.90;96.56;99140.13;5085203;28;20766;-80
2022/11/24 01:11:06;;;;;;;10.07;4.20;;;;;;;6.91;97.03;99149.78;5080333;28;20496;-76
2022/11/24 01:13:33;;;;;;;8.97;4.50;;;;;;;6.91;96.74;99154.25;5092411;28;20555;-80
2022/11/24 01:16:00;;;;;;;16.20;5.30;;;;;;;6.86;96.86;99146.72;5099099;28;20491;-80
2022/11/24 01:18:28;;;;;;;13.77;5.70;;;;;;;6.83;96.60;99151.50;5091501;28;20545;-80
2022/11/24 01:20:54;;;;;;;15.53;4.60;;;;;;;6.75;97.00;99147.75;5080808;28;20476;-76
2022/11/24 01:23:21;;;;;;;14.43;4.07;;;;;;;6.83;97.53;99146.19;5081021;28;20472;-77
2022/11/24 01:25:48;;;;;;;11.77;4.17;;;;;;;6.77;97.39;99148.44;5079955;28;20503;-76
2022/11/24 01:28:14;;;;;;;12.57;4.83;;;;;;;6.64;97.29;99142.56;5081246;28;20469;-76
2022/11/24 01:30:41;;;;;;;14.67;5.13;;;;;;;6.62;98.05;99149.84;5079812;28;20476;-76
2022/11/24 01:33:07;;;;;;;13.13;4.90;;;;;;;6.67;98.16;99152.91;5080372;28;20544;-76
2022/11/24 01:35:36;;;;;;;8.50;5.17;;;;;;;6.78;98.49;99158.06;5080014;28;20499;-74
2022/11/24 01:38:03;;;;;;;9.37;6.27;;;;;;;6.69;98.39;99153.59;5080847;28;20488;-76
2022/11/24 01:40:29;;;;;;;14.10;5.07;;;;;;;6.75;98.61;99162.81;5080111;28;20472;-77
2022/11/24 01:42:56;;;;;;;10.77;5.53;;;;;;;6.71;98.82;99153.47;5080734;28;20476;-74
2022/11/24 01:45:35;;;;;;;16.10;5.30;;;;;;;6.66;98.56;99153.88;5098477;28;20519;-79
2022/11/24 01:48:05;;;;;;;8.53;4.13;;;;;;;6.67;98.85;99160.06;5079271;28;20448;-75
2022/11/24 01:50:32;;;;;;;16.70;5.50;;;;;;;6.67;99.30;99157.41;5073865;28;20472;-77
2022/11/24 01:53:00;;;;;;;16.73;5.30;;;;;;;6.60;99.50;99165.09;5080811;28;20513;-77
2022/11/24 01:55:30;;;;;;;13.33;4.87;;;;;;;6.71;99.40;99162.25;5079939;28;20476;-77
2022/11/24 01:58:00;;;;;;;15.73;6.40;;;;;;;6.69;99.32;99168.72;5080944;28;20511;-75
2022/11/24 02:00:27;;;;;;;15.70;4.90;;;;;;;6.77;99.41;99166.16;5080453;28;20471;-78
2022/11/24 02:02:53;;;;;;;15.50;5.90;;;;;;;6.69;99.46;99164.22;5080285;28;20449;-76
2022/11/24 02:05:23;;;;;;;15.20;5.70;;;;;;;6.74;99.45;99167.31;5079328;28;20888;-77
2022/11/24 02:07:50;;;;;;;11.60;5.80;;;;;;;6.77;99.20;99171.47;5080416;28;20487;-75
2022/11/24 02:10:19;;;;;;;16.80;5.87;;;;;;;6.76;99.62;99181.28;5097458;28;20466;-78
2022/11/24 02:12:47;;;;;;;11.17;5.10;;;;;;;6.82;99.42;99177.19;5083033;28;20538;-77
2022/11/24 02:15:14;;;;;;;14.80;5.37;;;;;;;6.83;99.17;99180.72;5095667;28;20455;-78
2022/11/24 02:17:41;;;;;;;14.87;5.63;;;;;;;6.82;99.20;99179.03;5091488;28;20484;-78
2022/11/24 02:20:09;;;;;;;11.43;4.93;;;;;;;6.83;99.15;99178.88;5080112;28;20420;-78
2022/11/24 02:22:40;;;;;;;11.80;5.20;;;;;;;6.79;99.30;99183.66;5080948;28;20467;-78
2022/11/24 02:25:11;;;;;;;22.57;5.90;;;;;;;6.70;99.51;99186.31;5088860;28;20487;-74
2022/11/24 02:27:39;;;;;;;16.70;5.83;;;;;;;6.78;99.76;99189.94;5085201;28;21004;-77
2022/11/24 02:30:07;;;;;;;18.00;5.17;;;;;;;6.70;99.82;99187.16;5102980;28;20483;-68
2022/11/24 02:32:34;;;;;;;14.87;5.33;;;;;;;6.85;99.23;99189.38;5092875;28;20510;-78
2022/11/24 02:35:01;;;;;;;17.43;5.80;;;;;;;6.75;99.51;99195.56;5083507;28;20459;-76
2022/11/24 02:37:28;;;;;;;13.70;5.30;;;;;;;6.66;99.61;99196.38;5089972;28;20481;-78
2022/11/24 02:39:54;;;;;;;22.07;5.60;;;;;;;6.64;99.98;99192.22;5085695;28;21219;-80
2022/11/24 02:42:21;;;;;;;12.83;5.40;;;;;;;6.61;100.00;99195.97;5093981;28;20512;-79
2022/11/24 02:44:51;;;;;;;18.27;5.93;;;;;;;6.63;100.00;99209.97;5097434;28;21004;-74
2022/11/24 02:47:17;;;;;;;17.93;5.47;;;;;;;6.62;100.00;99202.13;5083300;28;20484;-72
2022/11/24 02:49:44;;;;;;;15.03;6.80;;;;;;;6.53;100.00;99209.97;5085708;28;20463;-73
2022/11/24 02:52:11;;;;;;;21.43;7.13;;;;;;;6.69;100.00;99206.72;5083735;28;21020;-75
2022/11/24 02:54:37;;;;;;;20.37;8.20;;;;;;;6.61;100.00;99222.53;5083459;28;20456;-74
2022/11/24 02:57:04;;;;;;;14.60;5.83;;;;;;;6.69;100.00;99213.88;5083180;28;20504;-74
2022/11/24 02:59:31;;;;;;;16.47;6.53;;;;;;;6.62;100.00;99221.56;5084017;28;20629;-74
2022/11/24 03:01:59;;;;;;;21.87;8.70;;;;;;;6.67;100.00;99219.31;5083158;28;20500;-71
2022/11/24 03:04:25;;;;;;;18.00;6.50;;;;;;;6.79;100.00;99226.16;5084468;28;20463;-75
2022/11/24 03:06:52;;;;;;;14.73;6.47;;;;;;;6.78;100.00;99223.63;5082348;28;20567;-76
2022/11/24 03:09:18;;;;;;;21.57;6.40;;;;;;;6.82;100.00;99225.00;5094414;28;20927;-77
2022/11/24 03:11:45;;;;;;;17.70;5.97;;;;;;;6.90;100.00;99227.81;5082216;28;20503;-74
2022/11/24 03:14:11;;;;;;;16.70;6.13;;;;;;;6.95;100.00;99230.88;5083551;28;20503;-78
2022/11/24 03:16:38;;;;;;;17.20;6.20;;;;;;;6.87;100.00;99227.25;5081832;28;20491;-69
2022/11/24 03:19:06;;;;;;;14.00;5.90;;;;;;;6.83;100.00;99226.72;5081816;28;20531;-74
2022/11/24 03:21:38;;;;;;;13.93;6.00;;;;;;;6.92;100.00;99227.66;5082564;28;20495;-75
2022/11/24 03:24:05;;;;;;;12.83;5.50;;;;;;;6.92;100.00;99240.97;5083955;28;20910;-79
2022/11/24 03:26:34;;;;;;;19.33;5.93;;;;;;;6.92;99.74;99235.66;5082111;28;20533;-78
2022/11/24 03:29:00;;;;;;;11.33;5.10;;;;;;;6.89;100.00;99247.41;5095667;28;20451;-78
2022/11/24 03:31:27;;;;;;;22.13;6.00;;;;;;;6.94;99.87;99253.13;5090086;28;20503;-78
2022/11/24 03:33:54;;;;;;;16.83;5.80;;;;;;;6.96;99.93;99250.31;5086679;28;20507;-77
2022/11/24 03:36:22;;;;;;;13.57;5.00;;;;;;;7.10;99.30;99257.00;5093343;28;20512;-78
2022/11/24 03:38:48;;;;;;;19.07;6.13;;;;;;;7.05;99.27;99248.63;5091934;28;20821;-77
2022/11/24 03:41:15;;;;;;;20.50;5.80;;;;;;;7.09;98.91;99260.66;5101729;28;20468;-77
2022/11/24 03:43:41;;;;;;;17.63;5.33;;;;;;;7.15;98.75;99260.06;5092644;28;20461;-71
2022/11/24 03:46:08;;;;;;;15.23;5.40;;;;;;;7.20;98.59;99267.63;5081554;28;20543;-78
2022/11/24 03:48:35;;;;;;;12.50;5.73;;;;;;;7.19;98.48;99264.13;5081659;28;20472;-79
2022/11/24 03:51:02;;;;;;;19.67;5.83;;;;;;;7.30;98.23;99265.78;5081922;28;20503;-79
2022/11/24 03:53:32;;;;;;;17.10;5.97;;;;;;;7.17;98.40;99266.09;5088185;28;21018;-79
2022/11/24 03:55:59;;;;;;;19.33;6.40;;;;;;;7.29;97.78;99270.28;5101878;28;20464;-77
2022/11/24 03:58:25;;;;;;;18.57;5.93;;;;;;;7.35;97.25;99276.84;5084965;28;20539;-78
2022/11/24 04:00:53;;;;;;;12.83;5.50;;;;;;;7.34;97.33;99268.03;5081250;28;20487;-79
2022/11/24 04:03:20;;;;;;;13.70;5.70;;;;;;;7.35;97.29;99276.84;5081879;28;20476;-80
2022/11/24 04:05:47;;;;;;;16.77;4.30;;;;;;;7.36;97.13;99283.84;5081483;28;20475;-79
2022/11/24 04:08:14;;;;;;;21.50;5.70;;;;;;;7.47;96.94;99275.69;5095576;28;20440;-75
2022/11/24 04:10:42;;;;;;;14.60;6.60;;;;;;;7.38;97.17;99279.22;5081356;28;20582;-78
2022/11/24 04:13:10;;;;;;;21.30;6.77;;;;;;;7.57;96.19;99277.44;5097353;28;21070;-76
2022/11/24 04:15:38;;;;;;;13.03;4.20;;;;;;;7.45;96.09;99287.47;5091021;28;20556;-75
2022/11/24 04:18:05;;;;;;;14.30;5.47;;;;;;;7.52;96.15;99285.88;5089292;28;20470;-78
2022/11/24 04:20:32;;;;;;;20.20;5.13;;;;;;;7.44;96.22;99286.59;5081245;28;20463;-78
2022/11/24 04:22:59;;;;;;;19.10;4.87;;;;;;;7.46;96.29;99287.28;5094768;28;20478;-75
2022/11/24 04:25:25;;;;;;;17.53;4.73;;;;;;;7.42;96.65;99285.06;5089030;28;20906;-76
2022/11/24 04:27:55;;;;;;;15.20;5.13;;;;;;;7.45;96.41;99288.28;5085314;28;20512;-79
2022/11/24 04:30:23;;;;;;;13.93;4.70;;;;;;;7.48;96.66;99288.00;5080496;28;20512;-75
2022/11/24 04:32:49;;;;;;;14.63;5.80;;;;;;;7.50;96.82;99287.84;5080626;28;20512;-75
2022/11/24 04:38:03;;;;;;;17.77;4.97;;;;;;;7.52;96.59;99297.34;5081607;28;20459;-77
2022/11/24 04:40:30;;;;;;;12.67;4.20;;;;;;;7.52;96.36;99308.00;5100629;28;20487;-79
2022/11/24 04:42:58;;;;;;;13.57;4.00;;;;;;;7.46;96.47;99297.91;5091959;28;20984;-80
2022/11/24 04:45:24;;;;;;;17.07;4.10;;;;;;;7.46;96.16;99297.91;5080908;28;20480;-79
2022/11/24 04:47:51;;;;;;;9.70;3.93;;;;;;;7.49;96.18;99302.13;5079627;28;20470;-79
2022/11/24 04:50:18;;;;;;;13.17;4.90;;;;;;;7.37;96.61;99305.94;5088987;28;20479;-75
2022/11/24 04:52:45;;;;;;;17.80;4.93;;;;;;;7.33;96.73;99308.06;5099693;28;20547;-67
2022/11/24 04:55:11;;;;;;;21.47;4.57;;;;;;;7.20;96.81;99308.34;5100200;28;20443;-67
2022/11/24 04:57:38;;;;;;;11.53;5.60;;;;;;;7.23;96.94;99316.03;5084694;28;20474;-67
2022/11/24 05:00:07;;;;;;;9.80;3.77;;;;;;;7.18;97.51;99312.97;5091176;28;20465;-69
2022/11/24 05:02:34;;;;;;;15.67;5.23;;;;;;;7.16;97.24;99312.25;5073710;28;20479;-68
2022/11/24 05:05:01;;;;;;;15.70;3.93;;;;;;;7.15;97.63;99313.22;5088621;28;20468;-68
2022/11/24 05:07:27;;;;;;;11.43;4.80;;;;;;;7.15;97.67;99314.09;5087537;28;20511;-68
2022/11/24 05:12:38;;;;;;;14.27;4.30;;;;;;;7.13;97.79;99315.19;5097323;28;20471;-68
2022/11/24 05:15:07;;;;;;;13.20;3.43;;;;;;;7.24;97.39;99319.50;5075284;28;20453;-68
2022/11/24 05:17:36;;;;;;;12.83;4.77;;;;;;;7.21;97.48;99325.16;5080409;28;20468;-68
2022/11/24 05:20:04;;;;;;;15.80;4.57;;;;;;;7.30;97.02;99335.75;5093761;28;20491;-67
2022/11/24 05:22:30;;;;;;;13.97;4.03;;;;;;;7.28;96.69;99331.56;5080486;28;20484;-67
2022/11/24 05:24:57;;;;;;;12.63;4.03;;;;;;;7.33;96.44;99338.13;5079889;28;20494;-67
2022/11/24 05:27:24;;;;;;;10.93;4.67;;;;;;;7.34;96.00;99344.28;5075875;28;20484;-67
2022/11/24 05:29:50;;;;;;;15.33;5.00;;;;;;;7.37;96.23;99351.16;5080218;28;20484;-67
2022/11/24 05:32:19;;;;;;;13.53;4.50;;;;;;;7.41;95.67;99355.19;5078489;28;20993;-67
2022/11/24 05:34:45;;;;;;;21.13;4.93;;;;;;;7.52;95.55;99352.38;5079797;28;20480;-67
2022/11/24 05:37:12;;;;;;;17.07;4.17;;;;;;;7.52;95.39;99355.88;5076310;28;21191;-67
2022/11/24 05:39:38;;;;;;;12.13;3.10;;;;;;;7.62;95.08;99357.66;5085013;28;20859;-66
2022/11/24 05:44:47;;;;;;;15.13;4.83;;;;;;;7.65;94.69;99360.03;5098846;28;20440;-67
2022/11/24 05:47:13;;;;;;;18.43;4.13;;;;;;;7.58;94.68;99358.94;5098921;28;20513;-67
2022/11/24 05:49:41;;;;;;;13.37;4.60;;;;;;;7.61;94.38;99354.16;5088157;28;20460;-66
2022/11/24 05:52:08;;;;;;;12.40;3.67;;;;;;;7.58;94.65;99359.78;5080552;28;20485;-67
2022/11/24 05:54:34;;;;;;;18.33;3.70;;;;;;;7.64;94.35;99369.03;5081981;28;20534;-66
2022/11/24 05:57:01;;;;;;;15.63;3.83;;;;;;;7.60;94.54;99364.94;5099121;28;20491;-67
2022/11/24 05:59:28;;;;;;;12.43;3.80;;;;;;;7.70;94.28;99371.91;5093177;28;20440;-68
2022/11/24 06:01:54;;;;;;;14.10;3.20;;;;;;;7.60;94.68;99378.25;5085664;28;20511;-66
2022/11/24 06:04:21;;;;;;;13.50;4.23;;;;;;;7.63;95.11;99368.16;5080018;28;20521;-67
2022/11/24 06:06:49;;;;;;;17.03;3.40;;;;;;;7.67;95.48;99382.88;5083074;28;20512;-66
2022/11/24 06:09:16;;;;;;;15.77;3.70;;;;;;;7.69;96.02;99378.25;5085636;28;20441;-66
2022/11/24 06:11:43;;;;;;;9.30;3.63;;;;;;;7.66;96.26;99385.69;5080483;28;20488;-68
2022/11/24 06:14:09;;;;;;;15.83;4.57;;;;;;;7.71;96.45;99378.09;5085929;28;20524;-65
2022/11/24 06:16:36;;;;;;;12.23;4.07;;;;;;;7.70;96.52;99382.56;5082342;28;20481;-66
2022/11/24 06:19:03;;;;;;;6.60;3.57;;;;;;;7.68;96.41;99387.19;5082863;28;20448;-65
2022/11/24 06:21:30;;;;;;;14.90;4.00;;;;;;;7.73;96.49;99392.09;5083469;28;20476;-65
2022/11/24 06:23:58;;;;;;;18.63;3.67;;;;;;;7.84;96.02;99388.41;5087898;28;20449;-66
2022/11/24 06:26:26;;;;;;;10.37;4.10;;;;;;;7.82;95.84;99391.22;5082516;28;20476;-66
2022/11/24 06:28:58;;;;;;;12.80;3.60;;;;;;;7.83;95.52;99392.91;5083518;28;20471;-65
2022/11/24 06:31:24;;;;;;;13.77;4.47;;;;;;;7.83;95.44;99392.91;5081653;28;20484;-65
2022/11/24 06:33:51;;;;;;;9.53;3.60;;;;;;;7.86;95.37;99405.06;5082601;28;20551;-65
2022/11/24 06:36:17;;;;;;;14.27;4.97;;;;;;;7.84;95.97;99413.19;5082440;28;20498;-65
2022/11/24 06:38:44;;;;;;;13.83;3.87;;;;;;;7.90;95.85;99412.63;5082518;28;20460;-66
2022/11/24 06:41:13;;;;;;;13.40;3.93;;;;;;;7.87;95.48;99420.91;5084575;28;20479;-65
2022/11/24 06:43:40;;;;;;;17.67;4.27;;;;;;;7.91;94.91;99418.78;5083222;28;20457;-65
2022/11/24 06:46:07;;;;;;;15.53;4.43;;;;;;;7.98;94.67;99422.56;5081688;28;20476;-65
2022/11/24 06:48:34;;;;;;;14.77;4.60;;;;;;;7.93;94.84;99432.78;5081521;28;20456;-65
2022/11/24 06:51:01;;;;;;;10.50;4.40;;;;;;;7.96;94.74;99437.84;5081881;28;20500;-65
2022/11/24 06:53:30;;;;;;;18.07;5.20;;;;;;;7.90;95.30;99436.59;5081962;28;20485;-65
2022/11/24 06:55:58;;;;;;;14.80;4.67;;;;;;;7.95;95.17;99437.97;5082264;28;20480;-65
2022/11/24 06:58:26;;;;;;;14.47;4.60;;;;;;;7.96;95.43;99442.31;5083459;28;20449;-65
2022/11/24 07:00:53;;;;;;;14.73;4.50;;;;;;;7.92;95.99;99447.94;5081757;28;20511;-65
2022/11/24 07:03:20;;;;;;;22.07;5.67;;;;;;;7.87;97.12;99447.53;5082675;28;20464;-65
2022/11/24 07:05:46;;;;;;;16.60;5.20;;;;;;;7.83;98.32;99456.78;5085667;28;20509;-65
2022/11/24 07:08:13;;;;;;;17.73;4.70;;;;;;;7.79;99.28;99452.72;5086412;28;20448;-65
2022/11/24 07:10:40;;;;;;;19.93;5.53;;;;;;;7.95;99.80;99465.44;5084507;28;20472;-65
2022/11/24 07:13:07;;;;;;;21.70;4.97;;;;;;;7.85;100.00;99465.47;5082186;28;20494;-66
2022/11/24 07:15:35;;;;;;;17.20;4.63;;;;;;;7.89;100.00;99466.84;5081504;28;20548;-65
2022/11/24 07:18:02;;;;;;;15.63;5.27;;;;;;;7.83;100.00;99463.91;5089193;28;20448;-65
2022/11/24 07:20:28;;;;;;;20.03;6.37;;;;;;;7.81;100.00;99471.19;5087223;28;20499;-66
2022/11/24 07:22:56;;;;;;;15.13;5.57;;;;;;;7.72;100.00;99472.88;5089328;28;20455;-65
2022/11/24 07:25:23;;;;;;;18.00;5.53;;;;;;;7.82;100.00;99478.22;5089662;28;20454;-65
2022/11/24 07:27:49;;;;;;;14.97;5.20;;;;;;;7.78;100.00;99479.44;5098127;28;20867;-65
2022/11/24 07:30:16;;;;;;;26.40;6.50;;;;;;;7.78;100.00;99482.13;5080845;28;20476;-65
2022/11/24 07:32:44;;;;;;;15.47;5.03;;;;;;;7.77;100.00;99478.63;5081366;28;20440;-66
2022/11/24 07:35:11;;;;;;;17.43;5.13;;;;;;;7.86;100.00;99485.78;5085760;28;21055;-60
2022/11/24 07:37:38;;;;;;;14.90;4.63;;;;;;;7.89;100.00;99490.78;5081818;28;20498;-62
2022/11/24 07:40:05;;;;;;;20.37;5.27;;;;;;;7.84;100.00;99490.38;5085246;28;20458;-62
2022/11/24 07:42:32;;;;;;;17.40;5.07;;;;;;;7.83;100.00;99495.84;5081406;28;20481;-62
2022/11/24 07:44:59;;;;;;;16.20;4.43;;;;;;;7.81;100.00;99495.16;5081746;28;20526;-61
2022/11/24 07:47:25;;;;;;;16.80;4.33;;;;;;;7.85;100.00;99508.03;5080877;28;21370;-62
2022/11/24 07:49:53;;;;;;;18.17;4.67;;;;;;;7.84;100.00;99517.00;5081581;28;20476;-65
2022/11/24 07:52:20;;;;;;;18.50;5.07;;;;;;;7.81;100.00;99516.44;5080765;28;20559;-65
2022/11/24 07:54:46;;;;;;;17.07;4.63;;;;;;;7.88;100.00;99517.53;5082181;28;20472;-65
2022/11/24 07:57:13;;;;;;;30.57;6.13;;;;;;;8.06;100.00;99521.19;5080802;28;21061;-65
2022/11/24 07:59:40;;;;;;;14.43;4.83;;;;;;;8.40;100.00;99515.38;5081078;28;20425;-65
2022/11/24 08:02:06;;;;;;;23.43;5.80;;;;;;;8.66;99.65;99520.91;5080957;28;20511;-65
2022/11/24 08:04:33;;;;;;;12.87;4.00;;;;;;;8.89;96.81;99519.69;5080067;28;20456;-65
2022/11/24 08:07:02;;;;;;;16.60;5.33;;;;;;;8.98;95.93;99518.81;5083279;28;20571;-65
2022/11/24 08:09:28;;;;;;;12.67;4.83;;;;;;;8.64;96.64;99525.53;5081507;28;20480;-65
2022/11/24 08:11:55;;;;;;;17.63;4.70;;;;;;;8.75;96.27;99524.53;5081064;28;20452;-66
2022/11/24 08:14:22;;;;;;;10.53;4.20;;;;;;;8.57;97.20;99529.75;5081559;28;20507;-65
2022/11/24 08:16:48;;;;;;;14.83;4.90;;;;;;;8.82;97.08;99530.13;5080909;28;20491;-65
2022/11/24 08:19:15;;;;;;;20.77;4.93;;;;;;;9.01;96.33;99531.84;5091060;28;20452;-66
2022/11/24 08:21:41;;;;;;;15.53;5.27;;;;;;;9.76;93.46;99542.31;5082755;28;20482;-66
2022/11/24 08:24:10;;;;;;;13.03;3.80;;;;;;;9.52;91.33;99532.25;5100452;28;20436;-66
2022/11/24 08:26:36;;;;;;;15.10;4.53;;;;;;;9.65;91.25;99539.84;5087802;28;20484;-65
2022/11/24 08:29:03;;;;;;;11.73;4.17;;;;;;;9.68;90.51;99540.38;5086292;28;20486;-65
2022/11/24 08:31:33;;;;;;;19.70;5.30;;;;;;;10.53;86.81;99538.06;5087857;28;20480;-67
2022/11/24 08:34:00;;;;;;;11.23;3.80;;;;;;;11.15;83.61;99542.41;5090047;28;20568;-66
2022/11/24 08:36:26;;;;;;;15.10;3.90;;;;;;;11.45;80.67;99537.47;5091704;28;20474;-65
2022/11/24 08:38:54;;;;;;;20.67;5.00;;;;;;;12.07;78.27;99539.75;5101393;28;20476;-66
2022/11/24 08:41:22;;;;;;;13.23;3.60;;;;;;;12.72;74.97;99537.97;5088707;28;20508;-65
2022/11/24 08:43:49;;;;;;;14.93;4.00;;;;;;;13.39;70.82;99547.47;5078087;28;20445;-66
2022/11/24 08:46:17;;;;;;;13.77;4.80;;;;;;;12.09;74.98;99547.59;5079829;28;20514;-65
2022/11/24 08:48:44;;;;;;;14.37;4.63;;;;;;;11.19;79.84;99559.78;5079376;28;20916;-66
2022/11/24 08:51:13;;;;;;;19.97;3.83;;;;;;;10.36;83.37;99553.19;5085420;28;20546;-66
2022/11/24 08:53:40;;;;;;;10.93;4.67;;;;;;;10.31;84.32;99557.25;5093133;28;20451;-66
2022/11/24 08:56:07;;;;;;;14.93;3.80;;;;;;;9.74;87.71;99565.66;5095567;28;20536;-64
2022/11/24 08:58:35;;;;;;;16.43;4.20;;;;;;;9.58;88.98;99577.84;5084004;28;20464;-63
2022/11/24 09:01:07;;;;;;;16.57;4.37;;;;;;;9.40;90.25;99577.78;5080483;28;20480;-63
2022/11/24 09:03:34;;;;;;;13.50;4.00;;;;;;;9.15;91.55;99575.81;5079950;28;20444;-64
2022/11/24 09:06:01;;;;;;;15.33;3.90;;;;;;;9.01;92.42;99571.84;5078908;28;20475;-64
2022/11/24 09:08:29;;;;;;;14.83;4.20;;;;;;;9.04;93.12;99574.19;5081924;28;20459;-64
2022/11/24 09:10:59;;;;;;;13.87;4.63;;;;;;;9.21;92.38;99580.56;5080316;28;20491;-64
2022/11/24 09:13:26;;;;;;;13.57;4.57;;;;;;;9.20;91.83;99579.75;5081312;28;20469;-64
2022/11/24 09:15:54;;;;;;;13.27;3.97;;;;;;;9.30;91.56;99590.34;5079741;28;20496;-64
2022/11/24 09:18:20;;;;;;;12.00;4.17;;;;;;;9.28;91.51;99591.50;5094993;28;20502;-63
2022/11/24 09:20:47;;;;;;;13.00;4.63;;;;;;;9.20;91.42;99577.09;5085159;28;20500;-64
2022/11/24 09:23:14;;;;;;;14.63;4.87;;;;;;;9.38;90.69;99590.44;5086990;28;20877;-64
2022/11/24 09:25:40;;;;;;;9.63;4.50;;;;;;;9.31;91.18;99600.03;5079841;28;20486;-64
2022/11/24 09:28:07;;;;;;;16.03;4.47;;;;;;;9.30;91.22;99602.84;5092095;28;20494;-64
2022/11/24 09:30:34;;;;;;;9.50;4.43;;;;;;;9.32;91.56;99592.88;5100030;28;20472;-64
2022/11/24 09:33:02;;;;;;;18.90;5.40;;;;;;;9.32;91.17;99603.53;5098399;28;20478;-64
2022/11/24 09:35:28;;;;;;;17.37;5.63;;;;;;;9.35;91.20;99609.41;5103872;28;20480;-64
2022/11/24 09:37:55;;;;;;;17.13;5.50;;;;;;;9.34;91.13;99607.75;5102709;28;20483;-64
2022/11/24 09:40:22;;;;;;;13.93;5.70;;;;;;;9.07;91.59;99603.25;5104975;28;20492;-64
2022/11/24 09:42:54;;;;;;;14.20;4.80;;;;;;;9.19;91.60;99618.06;5101908;28;20478;-64
2022/11/24 09:45:26;;;;;;;16.90;5.60;;;;;;;9.12;91.88;99618.81;5104349;28;20428;-64
2022/11/24 09:47:58;;;;;;;23.73;5.47;;;;;;;9.05;91.75;99623.88;5092104;28;20495;-64
2022/11/24 09:50:28;;;;;;;16.27;5.10;;;;;;;9.22;91.71;99619.59;5083693;28;20443;-64
2022/11/24 09:53:00;;;;;;;15.57;5.40;;;;;;;9.13;92.01;99616.00;5085143;28;20464;-64
2022/11/24 09:55:45;;;;;;;13.73;5.20;;;;;;;9.17;91.84;99619.22;5083603;28;20546;-64
2022/11/24 09:58:17;;;;;;;15.93;5.50;;;;;;;9.16;92.05;99625.50;5087990;28;20884;-64
2022/11/24 10:00:44;;;;;;;14.20;5.60;;;;;;;9.19;92.02;99623.41;5104405;28;20542;-64
2022/11/24 10:03:16;;;;;;;19.67;5.30;;;;;;;9.40;91.50;99630.31;5100976;28;20868;-64
2022/11/24 10:05:45;;;;;;;16.23;5.87;;;;;;;9.44;90.78;99639.69;5089252;28;20500;-68
2022/11/24 10:08:27;;;;;;;15.50;5.80;;;;;;;9.30;91.87;99634.84;5077042;28;20452;-63
2022/11/24 10:10:58;;;;;;;16.20;5.40;;;;;;;9.30;92.13;99637.53;5083608;28;20498;-63
2022/11/24 10:13:35;;;;;;;18.93;6.57;;;;;;;9.10;93.05;99647.47;5086370;28;20479;-63
2022/11/24 10:16:07;;;;;;;27.20;6.80;;;;;;;9.11;93.74;99643.78;5083269;28;20484;-65
2022/11/24 10:18:43;;;;;;;16.80;5.00;;;;;;;8.97;94.39;99650.44;5085346;28;20528;-65
2022/11/24 10:21:24;;;;;;;19.73;6.20;;;;;;;9.07;94.41;99650.41;5077237;28;21088;-65
2022/11/24 10:24:07;;;;;;;13.63;5.63;;;;;;;9.04;94.26;99656.84;5082644;28;20449;-64
2022/11/24 10:26:36;;;;;;;15.07;5.87;;;;;;;9.05;94.37;99658.53;5074509;28;20541;-64
2022/11/24 10:29:15;;;;;;;15.80;5.87;;;;;;;9.07;93.90;99661.91;5088733;28;20539;-65
2022/11/24 10:31:43;;;;;;;16.00;5.50;;;;;;;9.08;94.08;99666.25;5081515;28;20503;-65
2022/11/24 10:34:13;;;;;;;16.23;5.30;;;;;;;9.29;94.69;99676.72;5091238;28;20887;-65
2022/11/24 10:36:45;;;;;;;14.80;5.40;;;;;;;9.23;93.89;99672.81;5075987;28;20500;-65
2022/11/24 10:39:17;;;;;;;14.73;6.20;;;;;;;9.00;94.30;99671.47;5082398;28;20505;-65
2022/11/24 10:41:49;;;;;;;12.17;5.50;;;;;;;8.95;93.94;99679.06;5078329;28;20479;-65
2022/11/24 10:44:16;;;;;;;12.03;4.90;;;;;;;9.12;93.98;99677.47;5081497;28;20551;-64
2022/11/24 10:46:43;;;;;;;9.30;5.03;;;;;;;9.15;94.41;99675.34;5085423;28;20471;-65
2022/11/24 10:49:16;;;;;;;10.50;4.60;;;;;;;9.23;94.35;99677.28;5080999;28;20453;-65
2022/11/24 10:52:05;;;;;;;13.60;6.00;;;;;;;9.14;94.59;99680.84;5081760;28;20479;-65
2022/11/24 10:54:34;;;;;;;8.87;4.70;;;;;;;9.17;94.42;99676.03;5083045;28;20484;-65
2022/11/24 10:57:01;;;;;;;11.60;4.43;;;;;;;9.14;93.44;99680.84;5086678;28;20484;-64
2022/11/24 10:59:34;;;;;;;13.67;4.90;;;;;;;9.23;93.63;99685.28;5085255;28;20456;-64
2022/11/24 11:02:01;;;;;;;16.20;6.00;;;;;;;9.31;92.02;99680.06;5098521;28;20471;-64
2022/11/24 11:04:29;;;;;;;7.87;5.40;;;;;;;9.29;91.25;99683.84;5090764;28;20463;-65
2022/11/24 11:07:25;;;;;;;10.60;5.80;;;;;;;9.30;90.39;99689.03;5082827;28;20460;-64
2022/11/24 11:10:18;;;;;;;6.97;4.57;;;;;;;9.39;90.30;99681.97;5048695;28;20681;-64
2022/11/24 11:12:45;;;;;;;11.00;5.67;;;;;;;9.28;89.97;99688.34;5082007;28;20468;-64
2022/11/24 11:15:26;;;;;;;9.23;5.00;;;;;;;9.37;92.58;99678.63;5091730;28;20586;-65
2022/11/24 11:17:57;;;;;;;10.50;5.60;;;;;;;9.32;91.28;99691.56;5100260;28;20479;-64
2022/11/24 11:20:28;;;;;;;7.13;5.63;;;;;;;9.42;89.72;99684.38;5091797;28;20457;-65
2022/11/24 11:22:58;;;;;;;10.80;5.00;;;;;;;9.44;89.61;99690.38;5090197;28;20486;-65
2022/11/24 11:25:27;;;;;;;9.90;6.03;;;;;;;9.24;89.33;99702.97;5093446;28;21014;-65
2022/11/24 11:28:11;;;;;;;13.63;6.10;;;;;;;9.19;90.41;99705.25;5099537;28;20529;-65
2022/11/24 11:30:38;;;;;;;11.83;6.17;;;;;;;9.00;91.19;99698.97;5090628;28;20507;-65
2022/11/24 11:33:04;;;;;;;8.40;5.90;;;;;;;8.96;92.48;99718.09;5083922;28;20484;-65
2022/11/24 11:35:32;;;;;;;10.27;6.30;;;;;;;9.09;92.38;99715.09;5062885;28;20500;-65
2022/11/24 11:38:05;;;;;;;9.23;6.40;;;;;;;9.15;92.16;99722.50;5082050;28;20449;-65
2022/11/24 11:40:32;;;;;;;11.10;5.73;;;;;;;9.40;91.83;99721.03;5081947;28;20518;-65
2022/11/24 11:43:02;;;;;;;19.30;6.73;;;;;;;9.46;91.40;99728.47;5081615;28;20425;-65
2022/11/24 11:45:33;;;;;;;10.60;6.17;;;;;;;9.94;90.06;99723.88;5082009;28;21004;-65
2022/11/24 11:48:20;;;;;;;11.43;5.63;;;;;;;10.05;87.09;99726.34;5083219;28;20452;-66